sensor_id;sensor_type;location;lat;lon;timestamp;pressure;altitude;pressure_sealevel;temperature;humidity
31595;BME280;18200;48.726;8.892;2023-08-06T00:02:38;96022.22;;;27.93;40.17
31595;BME280;18200;48.726;8.892;2023-08-06T00:06:38;96011.47;;;28.52;38.76
31595;BME280;18200;48.726;8.892;2023-08-06T00:10:39;96015.59;;;28.05;38.93
31595;BME280;18200;48.726;8.892;2023-08-06T00:14:41;96016.00;;;27.52;40.36
31595;BME280;18200;48.726;8.892;2023-08-06T00:18:42;96019.13;;;28.06;38.96
31595;BME280;18200;48.726;8.892;2023-08-06T00:22:43;96014.00;;;27.99;39.35
31595;BME280;18200;48.726;8.892;2023-08-06T00:26:43;96017.53;;;28.25;39.12
31595;BME280;18200;48.726;8.892;2023-08-06T00:30:43;96017.16;;;28.12;39.64
31595;BME280;18200;48.726;8.892;2023-08-06T00:34:44;96018.22;;;27.48;39.71
31595;BME280;18200;48.726;8.892;2023-08-06T00:38:44;96003.94;;;27.96;38.57
31595;BME280;18200;48.726;8.892;2023-08-06T00:42:45;95992.41;;;27.31;39.64
31595;BME280;18200;48.726;8.892;2023-08-06T00:46:46;95991.09;;;26.86;40.37
31595;BME280;18200;48.726;8.892;2023-08-06T00:50:47;95987.13;;;27.28;39.43
31595;BME280;18200;48.726;8.892;2023-08-06T00:54:47;95989.09;;;27.47;39.38
31595;BME280;18200;48.726;8.892;2023-08-06T00:58:49;95973.03;;;27.92;39.42
31595;BME280;18200;48.726;8.892;2023-08-06T01:02:50;95973.75;;;28.18;38.56
31595;BME280;18200;48.726;8.892;2023-08-06T01:06:59;95981.25;;;28.12;38.33
31595;BME280;18200;48.726;8.892;2023-08-06T01:15:16;95967.16;;;27.58;38.79
31595;BME280;18200;48.726;8.892;2023-08-06T01:19:21;95963.88;;;27.14;39.33
31595;BME280;18200;48.726;8.892;2023-08-06T01:23:22;95963.72;;;26.83;39.65
31595;BME280;18200;48.726;8.892;2023-08-06T01:27:30;95957.94;;;26.81;39.56
31595;BME280;18200;48.726;8.892;2023-08-06T01:31:41;95951.56;;;26.75;39.73
31595;BME280;18200;48.726;8.892;2023-08-06T01:35:44;95956.00;;;27.07;39.65
31595;BME280;18200;48.726;8.892;2023-08-06T01:39:44;95962.41;;;26.78;39.39
31595;BME280;18200;48.726;8.892;2023-08-06T01:43:45;95956.97;;;26.84;39.16
31595;BME280;18200;48.726;8.892;2023-08-06T01:47:45;95960.66;;;27.36;38.77
31595;BME280;18200;48.726;8.892;2023-08-06T01:51:46;95964.44;;;27.38;37.88
31595;BME280;18200;48.726;8.892;2023-08-06T01:55:49;95956.22;;;27.04;37.87
31595;BME280;18200;48.726;8.892;2023-08-06T01:59:50;95953.59;;;25.81;40.50
31595;BME280;18200;48.726;8.892;2023-08-06T02:03:50;95933.00;;;25.91;39.91
31595;BME280;18200;48.726;8.892;2023-08-06T02:07:50;95920.72;;;26.07;40.85
31595;BME280;18200;48.726;8.892;2023-08-06T02:11:51;95925.13;;;26.13;40.03
31595;BME280;18200;48.726;8.892;2023-08-06T02:15:51;95907.47;;;26.75;39.22
31595;BME280;18200;48.726;8.892;2023-08-06T02:19:52;95903.78;;;26.98;38.26
31595;BME280;18200;48.726;8.892;2023-08-06T02:23:52;95900.59;;;26.85;38.61
31595;BME280;18200;48.726;8.892;2023-08-06T02:27:53;95890.72;;;27.19;37.95
31595;BME280;18200;48.726;8.892;2023-08-06T02:31:53;95888.91;;;27.61;36.70
31595;BME280;18200;48.726;8.892;2023-08-06T02:36:00;95894.22;;;27.39;37.43
31595;BME280;18200;48.726;8.892;2023-08-06T02:40:02;95882.00;;;27.00;37.86
31595;BME280;18200;48.726;8.892;2023-08-06T02:44:02;95874.53;;;27.83;35.98
31595;BME280;18200;48.726;8.892;2023-08-06T02:48:03;95879.25;;;27.77;36.24
31595;BME280;18200;48.726;8.892;2023-08-06T02:52:04;95880.25;;;27.74;36.24
31595;BME280;18200;48.726;8.892;2023-08-06T02:56:05;95876.44;;;27.72;36.76
31595;BME280;18200;48.726;8.892;2023-08-06T03:00:17;95873.25;;;27.79;36.38
31595;BME280;18200;48.726;8.892;2023-08-06T03:04:18;95853.44;;;27.49;37.69
31595;BME280;18200;48.726;8.892;2023-08-06T03:08:20;95855.63;;;27.71;36.70
31595;BME280;18200;48.726;8.892;2023-08-06T03:12:24;95854.19;;;27.81;37.12
31595;BME280;18200;48.726;8.892;2023-08-06T03:16:24;95847.19;;;27.85;37.43
31595;BME280;18200;48.726;8.892;2023-08-06T03:20:25;95840.47;;;27.92;37.06
31595;BME280;18200;48.726;8.892;2023-08-06T03:24:25;95835.84;;;27.78;37.28
31595;BME280;18200;48.726;8.892;2023-08-06T03:28:26;95849.41;;;27.50;37.65
31595;BME280;18200;48.726;8.892;2023-08-06T03:32:26;95846.34;;;27.74;37.70
31595;BME280;18200;48.726;8.892;2023-08-06T03:36:28;95852.41;;;28.09;36.90
31595;BME280;18200;48.726;8.892;2023-08-06T03:40:29;95849.19;;;28.16;36.60
31595;BME280;18200;48.726;8.892;2023-08-06T03:44:31;95861.03;;;28.22;36.92
31595;BME280;18200;48.726;8.892;2023-08-06T03:48:31;95860.31;;;28.27;36.66
31595;BME280;18200;48.726;8.892;2023-08-06T03:52:32;95843.34;;;28.45;36.78
31595;BME280;18200;48.726;8.892;2023-08-06T03:56:33;95852.72;;;28.22;36.90
31595;BME280;18200;48.726;8.892;2023-08-06T04:00:33;95858.66;;;28.04;37.23
31595;BME280;18200;48.726;8.892;2023-08-06T04:04:34;95866.00;;;28.12;37.45
31595;BME280;18200;48.726;8.892;2023-08-06T04:08:34;95877.84;;;28.24;37.75
31595;BME280;18200;48.726;8.892;2023-08-06T04:12:36;95875.00;;;27.82;38.25
31595;BME280;18200;48.726;8.892;2023-08-06T04:16:39;95877.75;;;27.50;38.72
31595;BME280;18200;48.726;8.892;2023-08-06T04:20:43;95880.53;;;27.82;37.62
31595;BME280;18200;48.726;8.892;2023-08-06T04:24:44;95873.50;;;27.81;37.92
31595;BME280;18200;48.726;8.892;2023-08-06T04:28:45;95871.06;;;27.57;38.42
31595;BME280;18200;48.726;8.892;2023-08-06T04:32:46;95875.88;;;27.36;39.46
31595;BME280;18200;48.726;8.892;2023-08-06T04:36:46;95880.28;;;26.28;41.65
31595;BME280;18200;48.726;8.892;2023-08-06T04:40:47;95874.81;;;25.40;43.39
31595;BME280;18200;48.726;8.892;2023-08-06T04:44:47;95885.03;;;25.10;43.62
31595;BME280;18200;48.726;8.892;2023-08-06T04:48:48;95873.75;;;26.45;41.82
31595;BME280;18200;48.726;8.892;2023-08-06T04:52:49;95880.00;;;27.78;38.48
31595;BME280;18200;48.726;8.892;2023-08-06T04:56:49;95874.56;;;27.89;38.54
31595;BME280;18200;48.726;8.892;2023-08-06T05:00:49;95869.50;;;27.82;38.66
31595;BME280;18200;48.726;8.892;2023-08-06T05:04:50;95877.16;;;28.29;37.66
31595;BME280;18200;48.726;8.892;2023-08-06T05:08:50;95864.72;;;28.13;38.28
31595;BME280;18200;48.726;8.892;2023-08-06T05:12:51;95869.81;;;28.63;37.31
31595;BME280;18200;48.726;8.892;2023-08-06T05:16:51;95874.06;;;28.58;36.57
31595;BME280;18200;48.726;8.892;2023-08-06T05:20:51;95872.75;;;29.01;36.88
31595;BME280;18200;48.726;8.892;2023-08-06T05:24:52;95878.00;;;28.46;36.70
31595;BME280;18200;48.726;8.892;2023-08-06T05:28:52;95878.47;;;28.87;37.51
31595;BME280;18200;48.726;8.892;2023-08-06T05:32:53;95878.72;;;28.83;36.18
31595;BME280;18200;48.726;8.892;2023-08-06T05:36:53;95893.88;;;28.51;36.92
31595;BME280;18200;48.726;8.892;2023-08-06T05:40:54;95899.38;;;28.93;35.77
31595;BME280;18200;48.726;8.892;2023-08-06T05:44:55;95899.84;;;28.86;35.83
31595;BME280;18200;48.726;8.892;2023-08-06T05:48:55;95902.72;;;28.61;36.19
31595;BME280;18200;48.726;8.892;2023-08-06T05:52:56;95899.44;;;28.57;35.76
31595;BME280;18200;48.726;8.892;2023-08-06T05:56:56;95900.28;;;28.68;35.67
31595;BME280;18200;48.726;8.892;2023-08-06T06:00:56;95896.75;;;28.73;35.64
31595;BME280;18200;48.726;8.892;2023-08-06T06:04:57;95897.16;;;28.55;35.49
31595;BME280;18200;48.726;8.892;2023-08-06T06:08:57;95896.22;;;27.96;36.93
31595;BME280;18200;48.726;8.892;2023-08-06T06:12:58;95898.22;;;28.63;35.82
31595;BME280;18200;48.726;8.892;2023-08-06T06:16:59;95898.72;;;28.62;36.58
31595;BME280;18200;48.726;8.892;2023-08-06T06:21:00;95898.50;;;28.71;36.27
31595;BME280;18200;48.726;8.892;2023-08-06T06:25:00;95908.66;;;28.48;36.80
31595;BME280;18200;48.726;8.892;2023-08-06T06:29:00;95914.28;;;27.65;36.87
31595;BME280;18200;48.726;8.892;2023-08-06T06:33:01;95926.44;;;27.79;37.46
31595;BME280;18200;48.726;8.892;2023-08-06T06:37:01;95922.69;;;27.77;37.62
31595;BME280;18200;48.726;8.892;2023-08-06T06:41:02;95929.38;;;27.24;38.23
31595;BME280;18200;48.726;8.892;2023-08-06T06:45:03;95934.56;;;28.51;36.75
31595;BME280;18200;48.726;8.892;2023-08-06T06:49:04;95932.22;;;28.07;37.77
31595;BME280;18200;48.726;8.892;2023-08-06T06:53:04;95931.69;;;28.34;36.81
31595;BME280;18200;48.726;8.892;2023-08-06T06:57:05;95929.97;;;28.36;37.01
31595;BME280;18200;48.726;8.892;2023-08-06T07:01:06;95930.88;;;28.59;36.47
31595;BME280;18200;48.726;8.892;2023-08-06T07:05:07;95927.19;;;28.36;37.36
31595;BME280;18200;48.726;8.892;2023-08-06T07:09:07;95928.50;;;28.47;37.80
31595;BME280;18200;48.726;8.892;2023-08-06T07:13:08;95917.97;;;28.87;36.80
31595;BME280;18200;48.726;8.892;2023-08-06T07:17:09;95917.13;;;28.70;37.33
31595;BME280;18200;48.726;8.892;2023-08-06T07:21:09;95922.88;;;27.99;38.20
31595;BME280;18200;48.726;8.892;2023-08-06T07:25:10;95933.66;;;28.59;37.47
31595;BME280;18200;48.726;8.892;2023-08-06T07:29:10;95935.53;;;28.48;37.60
31595;BME280;18200;48.726;8.892;2023-08-06T07:33:11;95943.94;;;26.84;40.64
31595;BME280;18200;48.726;8.892;2023-08-06T07:37:11;95940.78;;;27.12;39.81
31595;BME280;18200;48.726;8.892;2023-08-06T07:41:12;95949.94;;;27.95;38.96
31595;BME280;18200;48.726;8.892;2023-08-06T07:45:12;95947.13;;;28.88;36.89
31595;BME280;18200;48.726;8.892;2023-08-06T07:49:13;95942.28;;;27.79;38.46
31595;BME280;18200;48.726;8.892;2023-08-06T07:53:13;95933.84;;;28.98;37.16
31595;BME280;18200;48.726;8.892;2023-08-06T07:57:13;95937.59;;;28.89;38.04
31595;BME280;18200;48.726;8.892;2023-08-06T08:01:15;95941.03;;;29.27;36.56
31595;BME280;18200;48.726;8.892;2023-08-06T08:05:15;95950.81;;;27.81;38.92
31595;BME280;18200;48.726;8.892;2023-08-06T08:09:16;95957.91;;;28.13;38.51
31595;BME280;18200;48.726;8.892;2023-08-06T08:13:16;95956.25;;;28.58;37.08
31595;BME280;18200;48.726;8.892;2023-08-06T08:17:16;95945.25;;;28.32;37.78
31595;BME280;18200;48.726;8.892;2023-08-06T08:21:17;95948.38;;;27.88;38.56
31595;BME280;18200;48.726;8.892;2023-08-06T08:25:18;95955.91;;;27.36;39.89
31595;BME280;18200;48.726;8.892;2023-08-06T08:29:22;95950.09;;;28.11;38.72
31595;BME280;18200;48.726;8.892;2023-08-06T08:33:22;95950.97;;;29.07;36.85
31595;BME280;18200;48.726;8.892;2023-08-06T08:37:23;95940.16;;;28.25;38.86
31595;BME280;18200;48.726;8.892;2023-08-06T08:41:24;95953.00;;;28.59;38.26
31595;BME280;18200;48.726;8.892;2023-08-06T08:45:26;95948.66;;;28.53;37.87
31595;BME280;18200;48.726;8.892;2023-08-06T08:49:29;95954.03;;;28.67;38.13
31595;BME280;18200;48.726;8.892;2023-08-06T08:53:31;95944.84;;;28.87;37.98
31595;BME280;18200;48.726;8.892;2023-08-06T08:57:31;95951.94;;;28.93;36.68
31595;BME280;18200;48.726;8.892;2023-08-06T09:01:32;95946.81;;;29.23;37.20
31595;BME280;18200;48.726;8.892;2023-08-06T09:05:34;95949.69;;;29.03;37.56
31595;BME280;18200;48.726;8.892;2023-08-06T09:09:35;95951.81;;;28.71;38.40
31595;BME280;18200;48.726;8.892;2023-08-06T09:13:38;95955.56;;;28.37;38.37
31595;BME280;18200;48.726;8.892;2023-08-06T09:17:39;95955.06;;;28.02;39.42
31595;BME280;18200;48.726;8.892;2023-08-06T09:21:40;95965.41;;;27.35;39.73
31595;BME280;18200;48.726;8.892;2023-08-06T09:25:40;95966.50;;;27.43;40.35
31595;BME280;18200;48.726;8.892;2023-08-06T09:29:44;95973.91;;;25.98;42.48
31595;BME280;18200;48.726;8.892;2023-08-06T09:33:45;95972.94;;;26.31;42.24
31595;BME280;18200;48.726;8.892;2023-08-06T09:37:48;95966.56;;;27.49;40.03
31595;BME280;18200;48.726;8.892;2023-08-06T09:41:55;95973.97;;;28.77;37.52
31595;BME280;18200;48.726;8.892;2023-08-06T09:45:56;95971.72;;;27.01;40.61
31595;BME280;18200;48.726;8.892;2023-08-06T09:49:56;95969.13;;;27.78;39.44
31595;BME280;18200;48.726;8.892;2023-08-06T09:53:58;95978.06;;;27.07;40.21
31595;BME280;18200;48.726;8.892;2023-08-06T09:57:59;95995.53;;;26.05;42.09
31595;BME280;18200;48.726;8.892;2023-08-06T10:02:00;95982.75;;;26.81;41.09
31595;BME280;18200;48.726;8.892;2023-08-06T10:06:01;95983.38;;;27.11;40.66
31595;BME280;18200;48.726;8.892;2023-08-06T10:10:06;95997.31;;;27.88;40.20
31595;BME280;18200;48.726;8.892;2023-08-06T10:14:11;95998.44;;;26.75;41.95
31595;BME280;18200;48.726;8.892;2023-08-06T10:18:12;96016.47;;;24.23;46.77
31595;BME280;18200;48.726;8.892;2023-08-06T10:22:18;96006.13;;;26.71;42.74
31595;BME280;18200;48.726;8.892;2023-08-06T10:26:18;96001.84;;;26.70;42.37
31595;BME280;18200;48.726;8.892;2023-08-06T10:30:27;96013.41;;;26.25;43.36
31595;BME280;18200;48.726;8.892;2023-08-06T10:34:53;96022.84;;;25.65;43.00
31595;BME280;18200;48.726;8.892;2023-08-06T10:38:57;96024.94;;;25.32;44.00
31595;BME280;18200;48.726;8.892;2023-08-06T10:43:03;96022.84;;;24.20;45.14
31595;BME280;18200;48.726;8.892;2023-08-06T10:47:26;96040.28;;;25.38;42.77
31595;BME280;18200;48.726;8.892;2023-08-06T10:51:26;96038.31;;;25.39;43.21
31595;BME280;18200;48.726;8.892;2023-08-06T10:55:29;96047.31;;;25.63;42.72
31595;BME280;18200;48.726;8.892;2023-08-06T10:59:29;96041.44;;;26.38;41.73
31595;BME280;18200;48.726;8.892;2023-08-06T11:03:31;96064.09;;;26.03;41.62
31595;BME280;18200;48.726;8.892;2023-08-06T11:07:32;96051.75;;;24.48;44.19
31595;BME280;18200;48.726;8.892;2023-08-06T11:11:32;96070.09;;;24.84;44.10
31595;BME280;18200;48.726;8.892;2023-08-06T11:15:32;96083.31;;;25.27;44.01
31595;BME280;18200;48.726;8.892;2023-08-06T11:19:33;96072.69;;;25.44;42.45
31595;BME280;18200;48.726;8.892;2023-08-06T11:23:34;96083.91;;;25.31;42.00
31595;BME280;18200;48.726;8.892;2023-08-06T11:27:35;96078.59;;;25.51;41.76
31595;BME280;18200;48.726;8.892;2023-08-06T11:31:36;96080.66;;;25.80;40.61
31595;BME280;18200;48.726;8.892;2023-08-06T11:35:37;96089.78;;;25.48;42.32
31595;BME280;18200;48.726;8.892;2023-08-06T11:39:38;96111.47;;;24.89;42.32
31595;BME280;18200;48.726;8.892;2023-08-06T11:43:39;96095.91;;;23.90;44.19
31595;BME280;18200;48.726;8.892;2023-08-06T11:47:39;96098.91;;;25.54;41.10
31595;BME280;18200;48.726;8.892;2023-08-06T11:51:40;96114.78;;;23.43;44.63
31595;BME280;18200;48.726;8.892;2023-08-06T11:55:41;96130.22;;;23.09;46.96
31595;BME280;18200;48.726;8.892;2023-08-06T11:59:42;96126.69;;;24.30;44.37
31595;BME280;18200;48.726;8.892;2023-08-06T12:03:43;96133.13;;;24.09;44.05
31595;BME280;18200;48.726;8.892;2023-08-06T12:07:47;96124.63;;;24.67;42.16
31595;BME280;18200;48.726;8.892;2023-08-06T12:11:48;96120.31;;;24.24;42.91
31595;BME280;18200;48.726;8.892;2023-08-06T12:15:48;96144.09;;;25.29;41.26
31595;BME280;18200;48.726;8.892;2023-08-06T12:19:49;96132.56;;;25.16;41.75
31595;BME280;18200;48.726;8.892;2023-08-06T12:23:49;96131.66;;;25.66;41.38
31595;BME280;18200;48.726;8.892;2023-08-06T12:27:49;96148.63;;;25.88;40.56
31595;BME280;18200;48.726;8.892;2023-08-06T12:31:50;96133.38;;;24.56;42.91
31595;BME280;18200;48.726;8.892;2023-08-06T12:35:50;96164.00;;;24.64;43.09
31595;BME280;18200;48.726;8.892;2023-08-06T12:39:53;96167.38;;;25.19;42.73
31595;BME280;18200;48.726;8.892;2023-08-06T12:43:53;96172.91;;;23.86;43.49
31595;BME280;18200;48.726;8.892;2023-08-06T12:47:54;96169.84;;;24.57;41.69
31595;BME280;18200;48.726;8.892;2023-08-06T12:51:54;96156.91;;;24.39;42.61
31595;BME280;18200;48.726;8.892;2023-08-06T12:55:56;96169.44;;;24.04;43.17
31595;BME280;18200;48.726;8.892;2023-08-06T12:59:57;96150.94;;;25.01;40.27
31595;BME280;18200;48.726;8.892;2023-08-06T13:03:57;96149.28;;;25.36;39.74
31595;BME280;18200;48.726;8.892;2023-08-06T13:07:58;96177.03;;;25.94;38.75
31595;BME280;18200;48.726;8.892;2023-08-06T13:11:59;96146.63;;;26.80;37.76
31595;BME280;18200;48.726;8.892;2023-08-06T13:16:00;96160.03;;;26.20;39.00
31595;BME280;18200;48.726;8.892;2023-08-06T13:20:00;96165.00;;;25.68;38.55
31595;BME280;18200;48.726;8.892;2023-08-06T13:24:01;96171.13;;;26.63;37.95
31595;BME280;18200;48.726;8.892;2023-08-06T13:28:03;96192.50;;;26.15;38.62
31595;BME280;18200;48.726;8.892;2023-08-06T13:32:03;96209.69;;;24.43;40.16
31595;BME280;18200;48.726;8.892;2023-08-06T13:36:04;96203.88;;;24.41;42.25
31595;BME280;18200;48.726;8.892;2023-08-06T13:40:05;96191.56;;;26.19;38.65
31595;BME280;18200;48.726;8.892;2023-08-06T13:44:06;96183.53;;;28.21;34.83
31595;BME280;18200;48.726;8.892;2023-08-06T13:48:07;96210.19;;;25.76;38.82
31595;BME280;18200;48.726;8.892;2023-08-06T13:52:07;96203.44;;;25.12;40.43
31595;BME280;18200;48.726;8.892;2023-08-06T13:56:10;96239.13;;;24.43;41.26
31595;BME280;18200;48.726;8.892;2023-08-06T14:00:11;96206.72;;;24.92;39.72
31595;BME280;18200;48.726;8.892;2023-08-06T14:04:16;96224.53;;;25.80;39.44
31595;BME280;18200;48.726;8.892;2023-08-06T14:08:16;96209.25;;;26.27;39.48
31595;BME280;18200;48.726;8.892;2023-08-06T14:12:20;96230.44;;;24.44;41.68
31595;BME280;18200;48.726;8.892;2023-08-06T14:16:20;96236.28;;;25.57;41.31
31595;BME280;18200;48.726;8.892;2023-08-06T14:20:21;96251.06;;;25.27;41.68
31595;BME280;18200;48.726;8.892;2023-08-06T14:24:21;96243.47;;;26.73;40.06
31595;BME280;18200;48.726;8.892;2023-08-06T14:28:21;96249.31;;;25.80;41.74
31595;BME280;18200;48.726;8.892;2023-08-06T14:32:22;96243.28;;;25.25;42.06
31595;BME280;18200;48.726;8.892;2023-08-06T14:36:22;96262.31;;;24.87;42.66
31595;BME280;18200;48.726;8.892;2023-08-06T14:40:22;96263.34;;;26.77;40.08
31595;BME280;18200;48.726;8.892;2023-08-06T14:44:23;96266.03;;;25.26;41.96
31595;BME280;18200;48.726;8.892;2023-08-06T14:48:23;96282.91;;;24.55;42.39
31595;BME280;18200;48.726;8.892;2023-08-06T14:52:23;96287.59;;;25.09;42.06
31595;BME280;18200;48.726;8.892;2023-08-06T14:56:24;96294.50;;;25.05;42.47
31595;BME280;18200;48.726;8.892;2023-08-06T15:00:25;96295.50;;;26.33;40.11
31595;BME280;18200;48.726;8.892;2023-08-06T15:04:25;96299.84;;;25.08;42.36
31595;BME280;18200;48.726;8.892;2023-08-06T15:08:26;96307.16;;;26.75;39.62
31595;BME280;18200;48.726;8.892;2023-08-06T15:12:26;96299.13;;;25.91;40.20
31595;BME280;18200;48.726;8.892;2023-08-06T15:16:26;96292.06;;;25.90;39.59
31595;BME280;18200;48.726;8.892;2023-08-06T15:20:27;96304.81;;;26.97;38.01
31595;BME280;18200;48.726;8.892;2023-08-06T15:24:27;96308.84;;;25.69;40.35
31595;BME280;18200;48.726;8.892;2023-08-06T15:28:28;96309.81;;;26.46;38.56
31595;BME280;18200;48.726;8.892;2023-08-06T15:32:28;96293.59;;;27.59;36.71
31595;BME280;18200;48.726;8.892;2023-08-06T15:36:29;96307.16;;;25.71;38.75
31595;BME280;18200;48.726;8.892;2023-08-06T15:40:29;96306.03;;;25.45;38.88
31595;BME280;18200;48.726;8.892;2023-08-06T15:44:29;96305.56;;;26.83;37.76
31595;BME280;18200;48.726;8.892;2023-08-06T15:48:30;96306.06;;;25.27;39.16
31595;BME280;18200;48.726;8.892;2023-08-06T15:52:30;96342.81;;;25.98;38.11
31595;BME280;18200;48.726;8.892;2023-08-06T15:56:30;96333.31;;;24.89;40.58
31595;BME280;18200;48.726;8.892;2023-08-06T16:00:31;96329.56;;;26.44;37.79
31595;BME280;18200;48.726;8.892;2023-08-06T16:04:31;96338.84;;;25.99;38.13
31595;BME280;18200;48.726;8.892;2023-08-06T16:08:32;96336.28;;;25.36;39.77
31595;BME280;18200;48.726;8.892;2023-08-06T16:12:32;96347.31;;;25.36;39.58
31595;BME280;18200;48.726;8.892;2023-08-06T16:16:33;96339.44;;;26.36;37.33
31595;BME280;18200;48.726;8.892;2023-08-06T16:20:33;96356.47;;;26.26;37.73
31595;BME280;18200;48.726;8.892;2023-08-06T16:24:34;96368.75;;;24.96;38.15
31595;BME280;18200;48.726;8.892;2023-08-06T16:28:35;96366.72;;;25.83;38.98
31595;BME280;18200;48.726;8.892;2023-08-06T16:32:36;96370.56;;;24.90;38.62
31595;BME280;18200;48.726;8.892;2023-08-06T16:36:36;96382.75;;;24.61;40.35
31595;BME280;18200;48.726;8.892;2023-08-06T16:40:37;96384.72;;;25.52;38.56
31595;BME280;18200;48.726;8.892;2023-08-06T16:44:37;96379.03;;;25.64;38.88
31595;BME280;18200;48.726;8.892;2023-08-06T16:48:37;96383.97;;;25.93;38.12
31595;BME280;18200;48.726;8.892;2023-08-06T16:52:38;96398.94;;;25.05;40.00
31595;BME280;18200;48.726;8.892;2023-08-06T16:56:38;96399.09;;;24.83;39.67
31595;BME280;18200;48.726;8.892;2023-08-06T17:00:38;96410.78;;;24.47;40.71
31595;BME280;18200;48.726;8.892;2023-08-06T17:04:39;96405.78;;;26.95;36.12
31595;BME280;18200;48.726;8.892;2023-08-06T17:08:39;96417.13;;;25.20;40.16
31595;BME280;18200;48.726;8.892;2023-08-06T17:12:40;96413.16;;;24.85;39.86
31595;BME280;18200;48.726;8.892;2023-08-06T17:16:40;96415.56;;;26.15;37.50
31595;BME280;18200;48.726;8.892;2023-08-06T17:20:40;96429.41;;;24.52;40.36
31595;BME280;18200;48.726;8.892;2023-08-06T17:24:41;96442.81;;;24.41;40.34
31595;BME280;18200;48.726;8.892;2023-08-06T17:28:41;96436.09;;;24.42;42.10
31595;BME280;18200;48.726;8.892;2023-08-06T17:32:41;96435.59;;;24.93;41.71
31595;BME280;18200;48.726;8.892;2023-08-06T17:36:43;96434.66;;;23.98;42.71
31595;BME280;18200;48.726;8.892;2023-08-06T17:40:43;96450.34;;;23.88;43.16
31595;BME280;18200;48.726;8.892;2023-08-06T17:44:44;96442.22;;;24.46;42.28
31595;BME280;18200;48.726;8.892;2023-08-06T17:48:44;96450.09;;;23.96;42.73
31595;BME280;18200;48.726;8.892;2023-08-06T17:52:45;96448.88;;;24.36;41.64
31595;BME280;18200;48.726;8.892;2023-08-06T17:56:46;96441.31;;;24.10;42.19
31595;BME280;18200;48.726;8.892;2023-08-06T18:00:46;96453.97;;;25.50;39.73
31595;BME280;18200;48.726;8.892;2023-08-06T18:04:50;96451.19;;;25.14;39.27
31595;BME280;18200;48.726;8.892;2023-08-06T18:08:50;96453.00;;;25.62;39.12
31595;BME280;18200;48.726;8.892;2023-08-06T18:12:50;96466.31;;;24.51;40.99
31595;BME280;18200;48.726;8.892;2023-08-06T18:16:51;96460.63;;;24.86;39.75
31595;BME280;18200;48.726;8.892;2023-08-06T18:20:51;96469.53;;;25.08;39.43
31595;BME280;18200;48.726;8.892;2023-08-06T18:24:52;96473.28;;;24.25;40.83
31595;BME280;18200;48.726;8.892;2023-08-06T18:28:52;96472.69;;;23.78;42.20
31595;BME280;18200;48.726;8.892;2023-08-06T18:32:53;96474.09;;;23.61;42.18
31595;BME280;18200;48.726;8.892;2023-08-06T18:36:53;96490.34;;;23.99;41.55
31595;BME280;18200;48.726;8.892;2023-08-06T18:40:57;96467.69;;;25.14;38.87
31595;BME280;18200;48.726;8.892;2023-08-06T18:44:58;96482.59;;;23.75;42.04
31595;BME280;18200;48.726;8.892;2023-08-06T18:48:58;96474.69;;;24.97;39.59
31595;BME280;18200;48.726;8.892;2023-08-06T18:52:58;96467.53;;;25.72;38.12
31595;BME280;18200;48.726;8.892;2023-08-06T18:56:59;96489.94;;;26.06;37.41
31595;BME280;18200;48.726;8.892;2023-08-06T19:00:59;96476.56;;;25.54;38.58
31595;BME280;18200;48.726;8.892;2023-08-06T19:04:59;96487.88;;;24.22;40.65
31595;BME280;18200;48.726;8.892;2023-08-06T19:09:00;96493.03;;;24.11;40.48
31595;BME280;18200;48.726;8.892;2023-08-06T19:13:07;96482.25;;;25.60;37.79
31595;BME280;18200;48.726;8.892;2023-08-06T19:17:07;96489.97;;;24.09;39.97
31595;BME280;18200;48.726;8.892;2023-08-06T19:21:08;96494.75;;;25.52;37.11
31595;BME280;18200;48.726;8.892;2023-08-06T19:25:09;96502.41;;;25.57;36.81
31595;BME280;18200;48.726;8.892;2023-08-06T19:29:09;96513.59;;;23.85;40.92
31595;BME280;18200;48.726;8.892;2023-08-06T19:33:11;96502.81;;;25.01;37.85
31595;BME280;18200;48.726;8.892;2023-08-06T19:37:14;96505.59;;;25.82;36.42
31595;BME280;18200;48.726;8.892;2023-08-06T19:41:14;96542.16;;;23.75;39.17
31595;BME280;18200;48.726;8.892;2023-08-06T19:45:14;96510.63;;;24.01;38.80
31595;BME280;18200;48.726;8.892;2023-08-06T19:49:15;96505.25;;;24.99;37.47
31595;BME280;18200;48.726;8.892;2023-08-06T19:53:15;96511.94;;;23.44;39.96
31595;BME280;18200;48.726;8.892;2023-08-06T19:57:15;96504.59;;;24.06;38.84
31595;BME280;18200;48.726;8.892;2023-08-06T20:01:17;96510.91;;;23.72;38.80
31595;BME280;18200;48.726;8.892;2023-08-06T20:05:18;96521.25;;;23.68;39.21
31595;BME280;18200;48.726;8.892;2023-08-06T20:09:18;96523.13;;;22.90;39.68
31595;BME280;18200;48.726;8.892;2023-08-06T20:13:18;96524.66;;;23.26;39.41
31595;BME280;18200;48.726;8.892;2023-08-06T20:17:19;96528.31;;;23.23;40.57
31595;BME280;18200;48.726;8.892;2023-08-06T20:21:19;96527.41;;;23.26;41.19
31595;BME280;18200;48.726;8.892;2023-08-06T20:25:19;96532.00;;;22.94;41.11
31595;BME280;18200;48.726;8.892;2023-08-06T20:29:20;96556.72;;;23.63;39.91
31595;BME280;18200;48.726;8.892;2023-08-06T20:33:20;96545.38;;;23.95;40.42
31595;BME280;18200;48.726;8.892;2023-08-06T20:37:20;96531.41;;;23.59;40.99
31595;BME280;18200;48.726;8.892;2023-08-06T20:41:21;96537.94;;;24.97;38.77
31595;BME280;18200;48.726;8.892;2023-08-06T20:45:21;96553.75;;;23.36;41.73
31595;BME280;18200;48.726;8.892;2023-08-06T20:49:22;96560.22;;;23.29;42.02
31595;BME280;18200;48.726;8.892;2023-08-06T20:53:22;96556.34;;;22.67;43.78
31595;BME280;18200;48.726;8.892;2023-08-06T20:57:22;96564.41;;;23.55;42.36
31595;BME280;18200;48.726;8.892;2023-08-06T21:01:23;96564.13;;;23.41;42.21
31595;BME280;18200;48.726;8.892;2023-08-06T21:05:23;96557.97;;;22.52;43.52
31595;BME280;18200;48.726;8.892;2023-08-06T21:09:25;96556.53;;;22.98;42.83
31595;BME280;18200;48.726;8.892;2023-08-06T21:13:26;96571.44;;;22.47;43.80
31595;BME280;18200;48.726;8.892;2023-08-06T21:17:27;96568.97;;;23.71;41.52
31595;BME280;18200;48.726;8.892;2023-08-06T21:21:27;96559.88;;;24.88;39.79